Time;durP1;ratioP1;P1;durP2;ratioP2;P2;SDS_P1;SDS_P2;PMS_P1;PMS_P2;Temp;Humidity;BMP_temperature;BMP_pressure;BME280_temperature;BME280_humidity;BME280_pressure;Samples;Min_cycle;Max_cycle;Signal;HPM_P1;HPM_P2
2022/03/08 00:00:26;;;;;;;12.23;5.05;;;0.70;99.90;;;;;;4844060;29;20049;-73
2022/03/08 00:02:54;;;;;;;8.73;4.47;;;0.70;99.90;;;;;;4843339;29;20057;-74
2022/03/08 00:05:20;;;;;;;10.45;4.68;;;0.70;99.90;;;;;;4843615;29;20065;-74
2022/03/08 00:07:47;;;;;;;9.82;4.53;;;0.70;99.90;;;;;;4843967;29;20149;-74
2022/03/08 00:10:13;;;;;;;12.30;4.57;;;0.70;99.90;;;;;;4843772;29;20402;-74
2022/03/08 00:12:39;;;;;;;11.40;4.70;;;0.70;99.90;;;;;;4843720;29;20154;-73
2022/03/08 00:15:19;;;;;;;10.75;4.80;;;0.70;99.90;;;;;;4844073;29;20081;-74
2022/03/08 00:17:45;;;;;;;11.43;5.32;;;0.70;99.90;;;;;;4843702;29;20057;-73
2022/03/08 00:20:12;;;;;;;10.25;4.47;;;0.70;99.90;;;;;;4843940;29;20443;-74
2022/03/08 00:22:40;;;;;;;11.68;4.72;;;0.60;99.90;;;;;;4843203;29;20065;-73
2022/03/08 00:25:08;;;;;;;10.57;4.75;;;0.60;99.90;;;;;;4843498;29;20503;-73
2022/03/08 00:27:34;;;;;;;11.32;5.03;;;0.60;99.90;;;;;;4843777;29;20046;-75
2022/03/08 00:30:00;;;;;;;11.15;4.90;;;0.50;99.90;;;;;;4843783;29;20046;-74
2022/03/08 00:32:26;;;;;;;14.73;5.72;;;0.60;99.90;;;;;;4826886;29;20141;-75
2022/03/08 00:34:52;;;;;;;11.77;5.68;;;0.50;99.90;;;;;;4843723;29;20056;-74
2022/03/08 00:37:18;;;;;;;11.55;4.90;;;0.50;99.90;;;;;;4842897;29;20456;-73
2022/03/08 00:39:44;;;;;;;9.85;4.93;;;0.60;99.90;;;;;;4843350;29;20079;-73
2022/03/08 00:42:11;;;;;;;12.15;5.07;;;0.60;99.90;;;;;;4843268;29;20092;-75
2022/03/08 00:44:42;;;;;;;9.10;4.43;;;0.50;99.90;;;;;;4843476;29;20398;-73
2022/03/08 00:47:08;;;;;;;9.90;4.55;;;0.50;99.90;;;;;;4843409;29;20395;-72
2022/03/08 00:49:35;;;;;;;11.25;4.90;;;0.40;99.90;;;;;;4826909;29;20068;-72
2022/03/08 00:52:00;;;;;;;13.27;5.05;;;0.40;99.90;;;;;;4843424;29;20054;-73
2022/03/08 00:54:26;;;;;;;11.63;4.85;;;1.00;99.90;;;;;;4842872;29;20491;-73
2022/03/08 00:56:52;;;;;;;12.20;4.95;;;0.30;99.90;;;;;;4843238;29;20053;-75
2022/03/08 00:59:17;;;;;;;12.43;6.07;;;0.30;99.90;;;;;;4826635;29;20058;-75
2022/03/08 01:01:43;;;;;;;14.15;6.25;;;0.20;99.90;;;;;;4826595;29;20057;-75
2022/03/08 01:04:09;;;;;;;12.73;6.18;;;0.20;99.90;;;;;;4842856;29;20410;-73
2022/03/08 01:06:34;;;;;;;12.32;6.07;;;0.20;99.90;;;;;;4843079;29;20045;-71
2022/03/08 01:09:01;;;;;;;12.65;6.10;;;0.20;99.90;;;;;;4842495;29;20137;-75
2022/03/08 01:11:27;;;;;;;11.18;5.32;;;0.10;99.90;;;;;;4842748;29;20133;-74
2022/03/08 01:13:54;;;;;;;11.80;5.65;;;0.10;99.90;;;;;;4842835;29;20049;-74
2022/03/08 01:16:20;;;;;;;10.55;5.53;;;0.10;99.90;;;;;;4842703;29;20070;-73
2022/03/08 01:18:45;;;;;;;15.57;6.30;;;0.10;99.90;;;;;;4841248;29;20133;-75
2022/03/08 01:21:14;;;;;;;11.85;6.18;;;0.20;99.90;;;;;;4842850;29;20062;-73
2022/03/08 01:23:43;;;;;;;13.38;6.70;;;0.20;99.90;;;;;;4842408;29;20508;-75
2022/03/08 01:26:09;;;;;;;12.18;6.15;;;0.20;99.90;;;;;;4842457;29;20444;-74
2022/03/08 01:28:34;;;;;;;11.40;6.40;;;0.20;99.90;;;;;;4842767;29;20071;-71
2022/03/08 01:31:01;;;;;;;12.00;6.03;;;0.20;99.90;;;;;;4842545;29;20054;-72
2022/03/08 01:33:27;;;;;;;13.43;6.25;;;0.10;99.90;;;;;;4842531;29;20125;-73
2022/03/08 01:35:52;;;;;;;12.77;6.30;;;0.10;99.90;;;;;;4842343;29;20139;-70
2022/03/08 01:38:18;;;;;;;13.52;6.78;;;0.10;99.90;;;;;;4825853;29;20056;-72
2022/03/08 01:40:44;;;;;;;12.15;5.88;;;0.10;99.90;;;;;;4841679;29;20498;-73
2022/03/08 01:43:10;;;;;;;12.73;6.25;;;0.10;99.90;;;;;;4842425;29;20049;-72
2022/03/08 01:45:35;;;;;;;10.27;4.28;;;0.00;99.90;;;;;;4842481;29;20093;-72
2022/03/08 01:48:01;;;;;;;12.52;6.15;;;0.00;99.90;;;;;;4842325;29;20085;-72
2022/03/08 01:50:27;;;;;;;14.32;6.28;;;0.70;99.90;;;;;;4842391;29;20054;-72
2022/03/08 01:52:53;;;;;;;12.70;6.15;;;0.00;99.90;;;;;;4841269;29;20397;-72
2022/03/08 01:55:20;;;;;;;14.15;6.18;;;-0.10;99.90;;;;;;4841703;29;20046;-73
2022/03/08 01:57:47;;;;;;;13.88;6.72;;;-0.10;99.90;;;;;;4825721;29;20065;-73
2022/03/08 02:00:17;;;;;;;11.90;6.10;;;-0.10;99.90;;;;;;4825824;29;20392;-72
2022/03/08 02:02:43;;;;;;;13.35;6.85;;;-0.10;99.90;;;;;;4842190;29;20403;-72
2022/03/08 02:05:10;;;;;;;12.10;6.35;;;-0.10;99.90;;;;;;4842117;29;20045;-71
2022/03/08 02:07:36;;;;;;;12.48;6.85;;;-0.10;99.90;;;;;;4842212;29;20046;-73
2022/03/08 02:10:02;;;;;;;15.45;7.40;;;-0.10;99.90;;;;;;4841632;29;20114;-71
2022/03/08 02:12:28;;;;;;;14.00;6.93;;;-0.20;99.90;;;;;;4841311;29;20618;-71
2022/03/08 02:14:53;;;;;;;14.05;7.80;;;-0.20;99.90;;;;;;4841770;29;20070;-72
2022/03/08 02:17:19;;;;;;;13.18;7.18;;;-0.20;99.90;;;;;;4841916;29;20052;-72
2022/03/08 02:19:45;;;;;;;16.40;7.35;;;-0.20;99.90;;;;;;4841760;29;20105;-72
2022/03/08 02:22:10;;;;;;;13.57;6.95;;;-0.20;99.90;;;;;;4841982;29;20041;-72
2022/03/08 02:24:36;;;;;;;11.80;6.60;;;-0.20;99.90;;;;;;4844070;29;20060;-72
2022/03/08 02:27:02;;;;;;;13.05;6.72;;;-0.30;99.90;;;;;;4847402;29;20061;-72
2022/03/08 02:29:28;;;;;;;12.65;6.72;;;-0.30;99.90;;;;;;4847885;29;20459;-72
2022/03/08 02:31:55;;;;;;;14.18;7.22;;;-0.30;99.90;;;;;;4847864;29;20078;-72
2022/03/08 02:34:21;;;;;;;13.63;6.60;;;0.40;99.90;;;;;;4847813;29;20054;-73
2022/03/08 02:36:59;;;;;;;13.50;6.57;;;-0.30;99.90;;;;;;4831155;29;20050;-71
2022/03/08 02:39:24;;;;;;;13.48;7.25;;;0.80;99.90;;;;;;4847777;29;20049;-72
2022/03/08 02:41:50;;;;;;;12.30;6.65;;;-0.40;99.90;;;;;;4847852;29;20150;-73
2022/03/08 02:44:16;;;;;;;14.32;7.13;;;-0.40;99.90;;;;;;4846257;29;20086;-71
2022/03/08 02:46:41;;;;;;;15.02;6.82;;;-0.40;99.90;;;;;;4847911;29;20100;-72
2022/03/08 02:49:07;;;;;;;14.82;7.60;;;-0.40;99.90;;;;;;4848088;29;20038;-72
2022/03/08 02:51:32;;;;;;;13.38;7.07;;;-0.40;99.90;;;;;;4847754;29;20050;-72
2022/03/08 02:53:58;;;;;;;14.82;7.13;;;-0.50;99.90;;;;;;4847813;29;20046;-72
2022/03/08 02:56:24;;;;;;;15.10;7.80;;;-0.50;99.90;;;;;;4847369;29;20053;-70
2022/03/08 02:58:49;;;;;;;13.48;7.63;;;-0.50;99.90;;;;;;4847515;29;20527;-71
2022/03/08 03:01:15;;;;;;;18.10;8.05;;;-0.50;99.90;;;;;;4847736;29;20141;-72
2022/03/08 03:03:40;;;;;;;12.80;7.32;;;-0.50;99.90;;;;;;4847811;29;20064;-71
2022/03/08 03:06:06;;;;;;;14.60;8.07;;;-0.50;99.90;;;;;;4846628;29;20398;-72
2022/03/08 03:08:32;;;;;;;13.32;7.43;;;-0.50;99.90;;;;;;4847667;29;20052;-73
2022/03/08 03:10:57;;;;;;;15.10;7.80;;;-0.50;99.90;;;;;;4830847;29;20050;-71
2022/03/08 03:13:23;;;;;;;16.75;8.10;;;-0.60;99.90;;;;;;4847532;29;20088;-72
2022/03/08 03:15:49;;;;;;;14.35;7.97;;;-0.50;99.90;;;;;;4847147;29;20068;-71
2022/03/08 03:18:14;;;;;;;13.98;7.78;;;-0.60;99.90;;;;;;4847510;29;20053;-72
2022/03/08 03:20:40;;;;;;;14.80;7.72;;;-0.60;99.90;;;;;;4847581;29;20430;-71
2022/03/08 03:23:06;;;;;;;15.00;7.68;;;-0.60;99.90;;;;;;4847729;29;20133;-71
2022/03/08 03:25:32;;;;;;;16.95;7.53;;;-0.60;99.90;;;;;;4847259;29;20129;-71
2022/03/08 03:27:58;;;;;;;17.45;8.18;;;-0.60;99.90;;;;;;4847291;29;20129;-71
2022/03/08 03:30:23;;;;;;;14.40;7.68;;;-0.60;99.90;;;;;;4847276;29;20098;-73
2022/03/08 03:32:49;;;;;;;15.55;8.40;;;-0.60;99.90;;;;;;4830921;29;20046;-72
2022/03/08 03:35:15;;;;;;;15.90;7.85;;;-0.60;99.90;;;;;;4847418;29;20403;-72
2022/03/08 03:37:41;;;;;;;14.90;7.97;;;-0.60;99.90;;;;;;4843483;29;20137;-72
2022/03/08 03:40:09;;;;;;;16.05;8.73;;;-0.60;99.90;;;;;;4844499;29;20439;-72
2022/03/08 03:42:34;;;;;;;15.50;7.85;;;-0.60;99.90;;;;;;4844347;29;20134;-71
2022/03/08 03:45:00;;;;;;;16.20;8.10;;;-0.60;99.90;;;;;;4844266;29;20213;-69
2022/03/08 03:47:26;;;;;;;16.55;8.40;;;-0.60;99.90;;;;;;4842876;29;20476;-72
2022/03/08 03:49:51;;;;;;;15.88;8.13;;;-0.60;99.90;;;;;;4843100;29;20521;-72
2022/03/08 03:52:17;;;;;;;14.18;8.13;;;-0.60;99.90;;;;;;4844227;29;20398;-73
2022/03/08 03:54:42;;;;;;;16.10;8.55;;;-0.60;99.90;;;;;;4844103;29;20049;-73
2022/03/08 03:57:11;;;;;;;19.45;8.63;;;-0.60;99.90;;;;;;4844123;29;20054;-72
2022/03/08 03:59:38;;;;;;;15.60;8.13;;;-0.60;99.90;;;;;;4844478;29;20125;-72
2022/03/08 04:02:04;;;;;;;15.35;8.77;;;-0.70;99.90;;;;;;4843850;29;20038;-71
2022/03/08 04:04:29;;;;;;;17.27;8.13;;;-0.70;99.90;;;;;;4842764;29;20101;-72
2022/03/08 04:06:55;;;;;;;14.48;8.18;;;-0.70;99.90;;;;;;4843727;29;20045;-73
2022/03/08 04:09:21;;;;;;;18.48;9.30;;;-0.70;99.90;;;;;;4843996;29;20056;-73
2022/03/08 04:11:46;;;;;;;18.13;9.73;;;-0.70;99.90;;;;;;4843917;29;20410;-72
2022/03/08 04:14:12;;;;;;;16.75;8.43;;;-0.70;99.90;;;;;;4843735;29;20046;-71
2022/03/08 04:16:38;;;;;;;16.58;8.38;;;-0.70;99.90;;;;;;4843346;29;20133;-72
2022/03/08 04:19:03;;;;;;;20.92;8.82;;;-0.80;99.90;;;;;;4843612;29;20058;-73
2022/03/08 04:21:29;;;;;;;19.58;8.90;;;-0.80;99.90;;;;;;4843701;29;20046;-73
2022/03/08 04:23:55;;;;;;;18.02;8.40;;;-0.80;99.90;;;;;;4843695;29;20494;-72
2022/03/08 04:26:21;;;;;;;20.58;8.50;;;-0.80;99.90;;;;;;4843749;29;20064;-72
2022/03/08 04:28:46;;;;;;;17.58;8.82;;;-0.80;99.90;;;;;;4843433;29;20084;-71
2022/03/08 04:31:12;;;;;;;18.52;8.23;;;-0.80;99.90;;;;;;4843797;29;20056;-72
2022/03/08 04:33:38;;;;;;;16.33;7.65;;;-0.90;99.90;;;;;;4826768;29;20136;-72
2022/03/08 04:36:04;;;;;;;17.73;7.55;;;-0.90;99.90;;;;;;4843304;29;20125;-71
2022/03/08 04:38:30;;;;;;;16.23;7.40;;;-0.90;99.90;;;;;;4843421;29;20442;-72
2022/03/08 04:40:55;;;;;;;17.17;7.20;;;-0.90;99.90;;;;;;4843473;29;20046;-72
2022/03/08 04:43:21;;;;;;;15.45;7.47;;;-0.90;99.90;;;;;;4843316;29;20046;-71
2022/03/08 04:45:46;;;;;;;15.00;7.38;;;-0.90;99.90;;;;;;4843557;29;20038;-72
2022/03/08 04:48:12;;;;;;;15.52;7.47;;;-0.90;99.90;;;;;;4842667;29;20050;-71
2022/03/08 04:50:38;;;;;;;18.65;8.43;;;-0.90;99.90;;;;;;4826837;29;20069;-73
2022/03/08 04:53:04;;;;;;;17.90;7.90;;;-0.90;99.90;;;;;;4843499;29;20102;-72
2022/03/08 04:55:30;;;;;;;18.42;7.78;;;-0.90;99.90;;;;;;4843168;29;20050;-72
2022/03/08 04:57:55;;;;;;;17.80;7.85;;;-0.90;99.90;;;;;;4843050;29;20050;-73
2022/03/08 05:00:21;;;;;;;20.67;8.40;;;-0.90;99.90;;;;;;4842986;29;20050;-72
2022/03/08 05:02:47;;;;;;;17.58;7.20;;;-1.00;99.90;;;;;;4843131;29;20050;-73
2022/03/08 05:05:13;;;;;;;16.67;8.30;;;-1.00;99.90;;;;;;4842501;29;20064;-70
2022/03/08 05:07:40;;;;;;;20.90;7.43;;;-1.00;99.90;;;;;;4842942;29;20042;-72
2022/03/08 05:10:08;;;;;;;15.95;7.03;;;-1.00;99.90;;;;;;4843025;29;20064;-72
2022/03/08 05:12:35;;;;;;;17.05;6.97;;;-1.00;99.90;;;;;;4842764;29;20486;-72
2022/03/08 05:15:01;;;;;;;16.63;7.10;;;-1.00;99.90;;;;;;4842390;29;20218;-72
2022/03/08 05:17:27;;;;;;;13.00;6.65;;;-1.00;99.90;;;;;;4842482;29;20054;-72
2022/03/08 05:19:52;;;;;;;18.65;7.80;;;-1.00;99.90;;;;;;4825955;29;20056;-71
2022/03/08 05:22:18;;;;;;;15.32;7.30;;;-1.00;99.90;;;;;;4842685;29;20055;-71
2022/03/08 05:24:44;;;;;;;15.82;7.05;;;-1.00;99.90;;;;;;4842583;29;20410;-71
2022/03/08 05:27:10;;;;;;;17.33;7.93;;;-1.00;99.90;;;;;;4842608;29;20046;-73
2022/03/08 05:29:36;;;;;;;16.52;7.00;;;-1.00;99.90;;;;;;4842577;29;20053;-72
2022/03/08 05:32:02;;;;;;;20.58;7.70;;;-1.00;99.90;;;;;;4842595;29;20081;-72
2022/03/08 05:34:28;;;;;;;18.00;6.97;;;-1.00;99.90;;;;;;4842595;29;20411;-72
2022/03/08 05:36:55;;;;;;;20.30;8.50;;;-1.00;99.90;;;;;;4841919;29;20138;-72
2022/03/08 05:39:21;;;;;;;21.77;9.50;;;-1.00;99.90;;;;;;4842413;29;20089;-72
2022/03/08 05:41:47;;;;;;;22.42;8.90;;;-1.00;99.90;;;;;;4826046;29;20050;-72
2022/03/08 05:44:13;;;;;;;17.88;7.75;;;-1.00;99.90;;;;;;4842094;29;20042;-72
2022/03/08 05:46:38;;;;;;;20.92;7.63;;;-1.00;99.90;;;;;;4842199;29;20048;-73
2022/03/08 05:49:04;;;;;;;21.60;7.68;;;-0.40;99.90;;;;;;4842202;29;20106;-72
2022/03/08 05:51:30;;;;;;;18.70;8.98;;;-1.00;99.90;;;;;;4842051;29;20106;-72
2022/03/08 05:53:55;;;;;;;17.63;8.27;;;-1.00;99.90;;;;;;4842179;29;20045;-72
2022/03/08 05:56:21;;;;;;;21.05;8.88;;;-1.00;99.90;;;;;;4842358;29;20054;-72
2022/03/08 05:58:47;;;;;;;22.58;9.30;;;-1.00;99.90;;;;;;4841697;29;20054;-73
2022/03/08 06:01:13;;;;;;;21.80;8.52;;;-1.00;99.90;;;;;;4841519;29;20050;-72
2022/03/08 06:03:38;;;;;;;19.77;9.05;;;-1.00;99.90;;;;;;4842350;29;20447;-72
2022/03/08 06:06:04;;;;;;;23.58;9.15;;;-1.00;99.90;;;;;;4825860;29;20050;-71
2022/03/08 06:08:29;;;;;;;23.88;9.18;;;-1.00;99.90;;;;;;4841394;29;20487;-72
2022/03/08 06:10:55;;;;;;;18.08;8.25;;;-1.00;99.90;;;;;;4842107;29;20075;-72
2022/03/08 06:13:21;;;;;;;18.88;9.27;;;-1.00;99.90;;;;;;4841677;29;20066;-71
2022/03/08 06:15:46;;;;;;;18.42;7.82;;;-1.00;99.90;;;;;;4840600;29;20098;-71
2022/03/08 06:18:13;;;;;;;19.85;7.88;;;-1.00;99.90;;;;;;4841999;29;20045;-71
2022/03/08 06:20:38;;;;;;;24.10;9.05;;;-1.00;99.90;;;;;;4842531;29;20077;-73
2022/03/08 06:23:04;;;;;;;21.70;9.90;;;-1.00;99.90;;;;;;4840242;29;20511;-73
2022/03/08 06:25:29;;;;;;;21.27;9.95;;;-1.00;99.90;;;;;;4841819;29;20057;-70
2022/03/08 06:27:55;;;;;;;21.70;10.45;;;-1.00;99.90;;;;;;4841482;29;20042;-72
2022/03/08 06:30:21;;;;;;;21.92;10.10;;;-1.00;99.90;;;;;;4841937;29;20448;-71
2022/03/08 06:32:46;;;;;;;21.65;10.65;;;-1.00;99.90;;;;;;4841844;29;20512;-72
2022/03/08 06:35:13;;;;;;;21.75;10.15;;;-1.00;99.90;;;;;;4826164;29;20051;-70
2022/03/08 06:37:39;;;;;;;20.65;10.23;;;-0.90;99.90;;;;;;4814327;29;20054;-72
2022/03/08 06:40:06;;;;;;;22.08;9.45;;;-0.90;99.90;;;;;;4796457;29;20050;-72
2022/03/08 06:42:31;;;;;;;20.50;9.43;;;-0.90;99.90;;;;;;4810113;29;20062;-72
2022/03/08 06:44:57;;;;;;;20.80;9.38;;;-0.90;99.90;;;;;;4804079;29;20058;-74
2022/03/08 06:47:23;;;;;;;24.25;10.85;;;-0.80;99.90;;;;;;4787925;29;20164;-73
2022/03/08 06:49:48;;;;;;;19.13;9.73;;;-0.80;99.90;;;;;;4788143;29;20082;-73
2022/03/08 06:52:14;;;;;;;19.60;9.23;;;-0.70;99.90;;;;;;4787878;29;20418;-73
2022/03/08 06:54:40;;;;;;;23.45;10.88;;;-0.70;99.90;;;;;;4787736;29;20055;-72
2022/03/08 06:57:06;;;;;;;20.55;9.98;;;-0.70;99.90;;;;;;4788228;29;20055;-72
2022/03/08 06:59:32;;;;;;;25.00;11.25;;;-0.70;99.90;;;;;;4788486;29;20065;-71
2022/03/08 07:01:58;;;;;;;25.65;10.30;;;-0.60;99.90;;;;;;4804157;29;20500;-71
2022/03/08 07:04:24;;;;;;;22.95;10.20;;;-0.50;99.90;;;;;;4788148;29;20546;-73
2022/03/08 07:06:50;;;;;;;22.02;10.95;;;-0.50;99.90;;;;;;4804455;29;20070;-73
2022/03/08 07:09:16;;;;;;;23.85;10.65;;;-0.40;99.90;;;;;;4787783;29;20448;-73
2022/03/08 07:11:41;;;;;;;22.88;10.75;;;-0.40;99.90;;;;;;4806561;29;20051;-73
2022/03/08 07:14:07;;;;;;;20.50;10.35;;;-0.30;99.90;;;;;;4807783;29;20484;-73
2022/03/08 07:16:34;;;;;;;25.58;10.98;;;-0.30;99.90;;;;;;4807462;29;20073;-73
2022/03/08 07:18:59;;;;;;;22.67;10.48;;;-0.30;99.90;;;;;;4807193;29;20050;-69
2022/03/08 07:21:25;;;;;;;24.58;11.52;;;0.10;99.90;;;;;;4776483;29;20074;-72
2022/03/08 07:23:51;;;;;;;24.17;10.95;;;-0.10;99.90;;;;;;4807308;29;20050;-74
2022/03/08 07:26:17;;;;;;;22.40;10.48;;;-0.10;99.90;;;;;;4807121;29;20511;-74
2022/03/08 07:28:42;;;;;;;21.08;10.15;;;0.00;99.90;;;;;;4791170;29;20138;-72
2022/03/08 07:31:08;;;;;;;24.50;11.40;;;0.00;99.90;;;;;;4807262;29;20043;-73
2022/03/08 07:33:34;;;;;;;21.60;10.65;;;0.50;99.90;;;;;;4809513;29;20051;-71
2022/03/08 07:36:00;;;;;;;27.25;12.30;;;0.10;99.90;;;;;;4804143;29;20054;-73
2022/03/08 07:38:26;;;;;;;22.77;11.15;;;0.20;99.90;;;;;;4819182;29;20057;-73
2022/03/08 07:40:52;;;;;;;22.80;11.25;;;0.30;99.90;;;;;;4817554;29;20606;-73
2022/03/08 07:43:17;;;;;;;23.00;11.70;;;0.30;99.90;;;;;;4816191;29;20042;-76
2022/03/08 07:45:43;;;;;;;25.02;10.82;;;0.40;99.90;;;;;;4818175;29;20376;-79
2022/03/08 07:48:09;;;;;;;23.70;11.27;;;0.40;99.90;;;;;;4807129;29;20047;-79
2022/03/08 07:50:36;;;;;;;24.42;11.75;;;0.50;99.90;;;;;;4818477;29;20078;-73
2022/03/08 07:53:03;;;;;;;22.63;11.70;;;0.50;99.90;;;;;;4813305;29;20043;-76
2022/03/08 07:55:32;;;;;;;22.58;11.07;;;0.60;99.90;;;;;;4790772;29;20054;-74
2022/03/08 07:57:58;;;;;;;22.10;11.40;;;0.70;99.90;;;;;;4814012;29;20400;-75
2022/03/08 08:00:25;;;;;;;26.27;12.48;;;0.80;99.90;;;;;;4824275;29;20093;-77
2022/03/08 08:02:51;;;;;;;23.42;11.70;;;0.90;99.90;;;;;;4807593;29;20193;-77
2022/03/08 08:05:17;;;;;;;20.60;10.32;;;1.50;99.90;;;;;;4807967;29;20062;-75
2022/03/08 08:07:44;;;;;;;23.90;12.25;;;1.60;99.90;;;;;;4807569;29;20281;-78
2022/03/08 08:10:10;;;;;;;25.33;11.73;;;1.10;99.90;;;;;;4808236;29;20055;-74
2022/03/08 08:12:37;;;;;;;22.90;11.25;;;1.20;99.90;;;;;;4823887;29;20384;-77
2022/03/08 08:15:04;;;;;;;26.63;12.20;;;1.30;99.90;;;;;;4824141;29;20046;-75
2022/03/08 08:17:30;;;;;;;20.95;10.88;;;1.50;99.90;;;;;;4824053;29;20133;-77
2022/03/08 08:19:56;;;;;;;23.13;12.25;;;1.60;99.90;;;;;;4823664;29;20054;-77
2022/03/08 08:22:22;;;;;;;21.60;10.90;;;1.70;99.90;;;;;;4823553;29;20432;-76
2022/03/08 08:24:48;;;;;;;20.90;10.02;;;1.80;99.90;;;;;;4823700;29;20050;-76
2022/03/08 08:27:14;;;;;;;21.85;10.98;;;1.90;99.90;;;;;;4823952;29;20081;-76
2022/03/08 08:29:39;;;;;;;24.35;11.50;;;2.10;99.90;;;;;;4807304;29;20483;-76
2022/03/08 08:32:05;;;;;;;21.88;10.75;;;2.20;99.90;;;;;;4823245;29;20423;-74
2022/03/08 08:34:32;;;;;;;21.80;10.55;;;2.30;99.90;;;;;;4823849;29;20127;-75
2022/03/08 08:36:57;;;;;;;22.33;10.90;;;2.40;99.90;;;;;;4822749;29;20312;-76
2022/03/08 08:39:24;;;;;;;22.23;11.18;;;2.50;99.90;;;;;;4823502;29;20605;-76
2022/03/08 08:41:50;;;;;;;19.85;10.30;;;2.60;99.90;;;;;;4823280;29;20244;-76
2022/03/08 08:44:16;;;;;;;22.25;11.00;;;2.80;99.90;;;;;;4823165;29;20050;-75
2022/03/08 08:46:42;;;;;;;20.05;9.85;;;2.90;99.90;;;;;;4806684;29;20050;-73
2022/03/08 08:49:08;;;;;;;19.58;10.65;;;3.10;99.90;;;;;;4823474;29;20065;-74
2022/03/08 08:51:34;;;;;;;17.45;9.50;;;3.20;99.90;;;;;;4806365;29;20145;-76
2022/03/08 08:54:00;;;;;;;18.90;9.38;;;3.40;99.90;;;;;;4822819;29;20510;-74
2022/03/08 08:56:26;;;;;;;17.88;9.45;;;3.50;99.90;;;;;;4822903;29;20050;-71
2022/03/08 08:58:52;;;;;;;18.20;9.15;;;3.70;99.90;;;;;;4822368;29;20054;-74
2022/03/08 09:01:17;;;;;;;17.10;8.50;;;3.90;99.90;;;;;;4806379;29;20057;-74
2022/03/08 09:03:43;;;;;;;18.17;9.68;;;4.00;99.90;;;;;;4823076;29;20046;-73
2022/03/08 09:06:09;;;;;;;16.92;9.60;;;4.20;99.90;;;;;;4823131;29;20054;-74
2022/03/08 09:08:35;;;;;;;16.33;8.75;;;4.40;99.90;;;;;;4822389;29;20074;-74
2022/03/08 09:11:01;;;;;;;17.00;8.98;;;4.50;99.90;;;;;;4823066;29;20055;-72
2022/03/08 09:13:27;;;;;;;16.83;9.02;;;4.70;99.90;;;;;;4822687;29;20046;-74
2022/03/08 09:15:52;;;;;;;15.07;8.13;;;4.90;99.90;;;;;;4822347;29;20064;-75
2022/03/08 09:18:18;;;;;;;15.00;8.02;;;5.20;99.90;;;;;;4806261;29;20050;-77
2022/03/08 09:20:44;;;;;;;13.88;7.35;;;5.50;99.90;;;;;;4806256;29;20519;-75
2022/03/08 09:23:10;;;;;;;14.10;7.10;;;5.70;99.90;;;;;;4823021;29;20082;-76
2022/03/08 09:25:36;;;;;;;12.38;5.70;;;6.00;99.90;;;;;;4822468;29;20538;-75
2022/03/08 09:28:05;;;;;;;12.95;5.75;;;6.20;99.90;;;;;;4822236;29;20051;-74
2022/03/08 09:30:31;;;;;;;12.48;5.75;;;6.40;99.90;;;;;;4806190;29;20607;-74
2022/03/08 09:32:58;;;;;;;12.02;5.88;;;6.50;99.90;;;;;;4822381;29;20058;-76
2022/03/08 09:35:25;;;;;;;13.05;5.38;;;6.50;99.90;;;;;;4805690;29;20496;-75
2022/03/08 09:37:51;;;;;;;16.33;5.75;;;6.40;99.90;;;;;;4822193;29;20085;-75
2022/03/08 09:40:17;;;;;;;12.48;5.78;;;6.30;99.90;;;;;;4822942;29;20467;-73
2022/03/08 09:42:42;;;;;;;12.80;5.45;;;6.40;99.90;;;;;;4822535;29;20099;-76
2022/03/08 09:45:08;;;;;;;14.68;4.93;;;6.80;99.90;;;;;;4822689;29;20469;-73
2022/03/08 09:47:34;;;;;;;12.23;5.57;;;6.50;99.90;;;;;;4805972;29;20058;-74
2022/03/08 09:50:00;;;;;;;12.15;3.17;;;6.60;99.90;;;;;;4821987;29;20569;-75
2022/03/08 09:52:26;;;;;;;10.15;3.90;;;6.50;99.40;;;;;;4805564;29;20074;-78
2022/03/08 09:54:52;;;;;;;12.68;4.78;;;6.70;99.90;;;;;;4805862;29;20054;-75
2022/03/08 09:57:19;;;;;;;27.05;5.15;;;7.10;99.90;;;;;;4805776;29;20065;-76
2022/03/08 09:59:45;;;;;;;11.68;4.53;;;6.90;99.90;;;;;;4820566;29;20065;-76
2022/03/08 10:02:15;;;;;;;10.95;3.50;;;6.90;99.90;;;;;;4806364;29;20054;-76
2022/03/08 10:04:41;;;;;;;11.75;4.60;;;7.20;99.90;;;;;;4822177;29;20054;-76
2022/03/08 10:07:11;;;;;;;12.82;4.53;;;7.40;99.90;;;;;;4805937;29;20061;-75
2022/03/08 10:09:38;;;;;;;10.88;4.13;;;7.20;97.50;;;;;;4822073;29;20050;-76
2022/03/08 10:12:15;;;;;;;9.18;3.33;;;7.30;98.20;;;;;;4806065;29;20054;-75
2022/03/08 10:14:40;;;;;;;11.93;4.07;;;7.30;99.00;;;;;;4805584;29;20085;-74
2022/03/08 10:17:30;;;;;;;10.38;4.32;;;7.50;99.90;;;;;;4822334;29;20651;-73
2022/03/08 10:19:55;;;;;;;10.57;4.38;;;7.70;96.70;;;;;;4821593;29;20141;-76
2022/03/08 10:22:30;;;;;;;9.70;4.13;;;7.60;92.80;;;;;;4822604;29;20137;-76
2022/03/08 10:25:17;;;;;;;11.65;3.95;;;7.70;96.50;;;;;;4822066;29;20055;-74
2022/03/08 10:27:55;;;;;;;9.52;4.05;;;7.70;87.80;;;;;;4804669;29;20103;-73
2022/03/08 10:30:27;;;;;;;9.63;4.10;;;7.80;95.60;;;;;;4821809;29;20055;-75
2022/03/08 10:32:56;;;;;;;8.45;3.45;;;7.90;94.60;;;;;;4821932;29;20075;-74
2022/03/08 10:35:26;;;;;;;10.02;3.58;;;7.90;91.00;;;;;;4821947;29;20527;-75
2022/03/08 10:37:52;;;;;;;10.63;3.80;;;8.10;92.60;;;;;;4805080;29;20046;-74
2022/03/08 10:40:32;;;;;;;11.48;3.85;;;8.30;84.20;;;;;;4822017;29;20115;-74
2022/03/08 10:43:03;;;;;;;11.48;4.28;;;8.10;80.00;;;;;;4821561;29;20050;-74
2022/03/08 10:45:30;;;;;;;10.80;4.18;;;8.40;72.50;;;;;;4823068;29;20053;-76
2022/03/08 10:47:56;;;;;;;8.15;3.47;;;8.10;70.00;;;;;;4825171;29;20085;-74
2022/03/08 10:50:25;;;;;;;9.32;3.85;;;8.10;75.00;;;;;;4808624;29;20081;-74
2022/03/08 10:52:54;;;;;;;9.15;4.13;;;8.20;70.20;;;;;;4808992;29;20525;-75
2022/03/08 10:55:32;;;;;;;10.35;4.30;;;8.20;72.10;;;;;;4825571;29;20061;-74
2022/03/08 10:58:10;;;;;;;11.13;4.15;;;8.30;70.90;;;;;;4825002;29;20087;-75
2022/03/08 11:00:45;;;;;;;10.40;4.68;;;8.30;69.70;;;;;;4825083;29;20398;-75
2022/03/08 11:03:13;;;;;;;11.90;4.43;;;8.30;71.00;;;;;;4825532;29;20054;-76
2022/03/08 11:05:45;;;;;;;10.60;4.53;;;8.40;72.70;;;;;;4808822;29;20077;-76
2022/03/08 11:08:11;;;;;;;10.43;4.68;;;8.50;71.70;;;;;;4825010;29;20092;-77
2022/03/08 11:10:38;;;;;;;11.20;4.53;;;8.60;73.50;;;;;;4824857;29;20054;-76
2022/03/08 11:13:05;;;;;;;8.05;3.00;;;8.60;70.50;;;;;;4808945;29;20500;-75
2022/03/08 11:15:34;;;;;;;10.00;3.30;;;8.80;69.50;;;;;;4824519;29;20066;-76
2022/03/08 11:18:01;;;;;;;9.18;2.75;;;8.60;68.70;;;;;;4824882;29;20055;-74
2022/03/08 11:20:28;;;;;;;10.68;3.20;;;8.80;70.90;;;;;;4823614;29;20058;-76
2022/03/08 11:22:56;;;;;;;7.70;2.80;;;8.80;72.30;;;;;;4824696;29;20050;-74
2022/03/08 11:25:44;;;;;;;8.75;3.42;;;8.90;72.20;;;;;;4824807;29;20046;-75
2022/03/08 11:28:09;;;;;;;8.65;3.50;;;9.00;73.20;;;;;;4824898;29;20050;-75
2022/03/08 11:30:48;;;;;;;12.63;4.72;;;9.10;73.60;;;;;;4808279;29;20050;-76
2022/03/08 11:33:19;;;;;;;8.05;3.10;;;9.20;71.00;;;;;;4824869;29;20058;-76
2022/03/08 11:36:02;;;;;;;9.32;3.20;;;9.40;69.20;;;;;;4808624;29;20443;-75
2022/03/08 11:38:28;;;;;;;7.90;3.20;;;9.30;70.10;;;;;;4824340;29;20055;-75
2022/03/08 11:40:58;;;;;;;7.45;2.60;;;9.70;72.20;;;;;;4824495;29;20061;-74
2022/03/08 11:43:42;;;;;;;8.65;3.30;;;9.60;66.00;;;;;;4808204;29;20137;-75
2022/03/08 11:46:15;;;;;;;9.05;2.85;;;9.40;65.70;;;;;;4824466;29;20072;-77
2022/03/08 11:48:56;;;;;;;8.95;3.17;;;9.40;64.90;;;;;;4808179;29;20508;-73
2022/03/08 11:51:24;;;;;;;7.20;2.60;;;9.40;65.00;;;;;;4823459;29;20143;-73
2022/03/08 11:54:26;;;;;;;9.02;3.30;;;9.50;68.00;;;;;;4823804;29;20298;-78
2022/03/08 11:56:54;;;;;;;8.55;3.17;;;9.60;70.00;;;;;;4734047;30;20394;-71
2022/03/08 11:59:20;;;;;;;9.63;3.38;;;9.80;70.00;;;;;;4749778;30;20138;-75
2022/03/08 12:01:47;;;;;;;7.47;2.70;;;9.90;68.70;;;;;;4750123;30;20147;-76
2022/03/08 12:04:18;;;;;;;7.45;3.15;;;10.20;64.60;;;;;;4749855;30;20087;-76
2022/03/08 12:06:54;;;;;;;7.80;2.93;;;9.90;63.50;;;;;;4749516;30;20056;-75
2022/03/08 12:09:21;;;;;;;8.90;2.92;;;9.80;61.10;;;;;;4734187;30;20056;-74
2022/03/08 12:12:02;;;;;;;8.43;3.10;;;9.80;64.60;;;;;;4749278;30;20074;-73
2022/03/08 12:14:37;;;;;;;11.85;3.10;;;9.90;64.90;;;;;;4720085;30;20071;-74
2022/03/08 12:17:12;;;;;;;7.05;2.42;;;9.90;62.00;;;;;;4734085;30;20433;-74
2022/03/08 12:19:40;;;;;;;9.48;3.17;;;9.90;61.90;;;;;;4734411;30;20072;-76
2022/03/08 12:22:12;;;;;;;7.60;2.70;;;10.00;64.30;;;;;;4748795;30;20414;-73
2022/03/08 12:24:59;;;;;;;6.65;2.58;;;10.10;64.00;;;;;;4749136;30;20502;-74
2022/03/08 12:27:46;;;;;;;7.18;2.15;;;10.20;62.80;;;;;;4748551;30;20074;-73
2022/03/08 12:30:12;;;;;;;6.82;2.33;;;10.40;64.50;;;;;;4749469;30;20069;-74
2022/03/08 12:32:43;;;;;;;7.47;2.45;;;10.50;60.00;;;;;;4769586;29;20063;-79
2022/03/08 12:35:20;;;;;;;6.18;2.35;;;11.10;64.40;;;;;;4823387;29;20050;-78
2022/03/08 12:37:52;;;;;;;13.10;2.70;;;10.50;63.70;;;;;;4806618;29;20103;-81
2022/03/08 12:40:20;;;;;;;6.95;1.98;;;10.50;62.80;;;;;;4822360;29;20114;-79
2022/03/08 12:42:52;;;;;;;8.32;2.60;;;10.50;61.60;;;;;;4822697;29;20628;-81